createdAt,value
2019-06-26T00:00:19.778Z,100190.95
2019-06-26T00:02:50.862Z,100194.80
2019-06-26T00:05:21.708Z,100195.63
2019-06-26T00:07:52.470Z,100198.81
2019-06-26T00:10:23.568Z,100199.50
2019-06-26T00:12:55.512Z,100195.70
2019-06-26T00:15:27.941Z,100193.42
2019-06-26T00:17:59.016Z,100197.96
2019-06-26T00:20:29.788Z,100195.97
2019-06-26T00:23:00.576Z,100193.69
2019-06-26T00:25:31.692Z,100199.35
2019-06-26T00:28:23.580Z,100201.73
2019-06-26T00:30:54.973Z,100203.36
2019-06-26T00:33:27.609Z,100206.44
2019-06-26T00:35:58.709Z,100208.12
2019-06-26T00:38:29.559Z,100212.29
2019-06-26T00:41:00.617Z,100207.58
2019-06-26T00:43:41.895Z,100212.55
2019-06-26T00:46:04.250Z,100219.47
2019-06-26T00:51:26.744Z,100212.52
2019-06-26T00:54:22.229Z,100216.30
2019-06-26T01:01:08.941Z,100217.48
2019-06-26T01:03:39.635Z,100218.83
2019-06-26T01:06:31.337Z,100222.53
2019-06-26T01:09:27.335Z,100218.22
2019-06-26T01:11:58.077Z,100221.53
2019-06-26T01:14:29.354Z,100222.80
2019-06-26T01:17:00.348Z,100221.37
2019-06-26T01:19:31.322Z,100223.22
2019-06-26T01:22:02.074Z,100218.89
2019-06-26T01:24:32.884Z,100215.22
2019-06-26T01:27:03.725Z,100216.73
2019-06-26T01:29:34.788Z,100219.52
2019-06-26T01:32:05.709Z,100217.97
2019-06-26T01:34:37.089Z,100215.52
2019-06-26T01:37:08.158Z,100214.67
2019-06-26T01:39:38.904Z,100217.31
2019-06-26T01:42:10.106Z,100215.19
2019-06-26T01:44:40.853Z,100213.37
2019-06-26T01:47:11.676Z,100216.05
2019-06-26T01:49:42.915Z,100216.55
2019-06-26T01:52:13.911Z,100219.55
2019-06-26T01:54:44.861Z,100218.89
2019-06-26T01:57:16.113Z,100218.89
2019-06-26T01:59:47.627Z,100223.22
2019-06-26T02:02:18.378Z,100229.02
2019-06-26T02:04:49.192Z,100233.28
2019-06-26T02:07:20.028Z,100240.57
2019-06-26T02:09:50.772Z,100237.42
2019-06-26T02:12:21.542Z,100237.45
2019-06-26T02:14:52.286Z,100234.83
2019-06-26T02:17:23.500Z,100237.50
2019-06-26T02:19:54.548Z,100233.01
2019-06-26T02:22:25.594Z,100230.58
2019-06-26T02:24:56.325Z,100232.70
2019-06-26T02:27:27.078Z,100235.40
2019-06-26T02:29:58.049Z,100232.66
2019-06-26T02:32:29.105Z,100229.86
2019-06-26T02:34:59.893Z,100232.66
2019-06-26T02:37:30.710Z,100227.73
2019-06-26T02:40:01.705Z,100228.08
2019-06-26T02:42:32.760Z,100227.07
2019-06-26T02:45:03.712Z,100228.06
2019-06-26T02:47:34.650Z,100230.70
2019-06-26T02:50:06.041Z,100236.86
2019-06-26T02:52:37.168Z,100229.75
2019-06-26T02:55:11.097Z,100235.56
2019-06-26T02:57:42.093Z,100235.78
2019-06-26T03:00:12.978Z,100233.11
2019-06-26T03:02:44.092Z,100229.86
2019-06-26T03:05:15.178Z,100234.64
2019-06-26T03:07:45.960Z,100241.27
2019-06-26T03:10:17.090Z,100236.72
2019-06-26T03:12:48.407Z,100235.83
2019-06-26T03:15:19.439Z,100244.77
2019-06-26T03:17:55.201Z,100242.97
2019-06-26T03:20:26.058Z,100251.73
2019-06-26T03:22:56.918Z,100252.71
2019-06-26T03:25:27.731Z,100250.74
2019-06-26T03:27:58.567Z,100256.39
2019-06-26T03:30:29.305Z,100255.21
2019-06-26T03:33:00.380Z,100263.02
2019-06-26T03:35:31.110Z,100263.30
2019-06-26T03:38:01.891Z,100263.00
2019-06-26T03:40:32.626Z,100263.70
2019-06-26T03:43:03.591Z,100259.67
2019-06-26T03:45:34.416Z,100268.44
2019-06-26T03:48:05.260Z,100272.06
2019-06-26T03:50:36.243Z,100274.06
2019-06-26T03:53:07.109Z,100279.55
2019-06-26T03:55:38.262Z,100283.53
2019-06-26T03:58:09.330Z,100281.53
2019-06-26T04:00:41.138Z,100284.52
2019-06-26T04:03:11.970Z,100280.55
2019-06-26T04:05:42.740Z,100286.18
2019-06-26T04:08:13.774Z,100288.14
2019-06-26T04:10:44.520Z,100293.75
2019-06-26T04:13:15.498Z,100293.41
2019-06-26T04:15:46.530Z,100298.52
2019-06-26T04:18:17.527Z,100293.89
2019-06-26T04:20:49.922Z,100298.02
2019-06-26T04:23:21.154Z,100294.72
2019-06-26T04:25:52.192Z,100297.66
2019-06-26T04:28:23.266Z,100302.45
2019-06-26T04:30:55.314Z,100300.15
2019-06-26T04:33:26.088Z,100303.24
2019-06-26T04:35:57.194Z,100299.95
2019-06-26T04:38:28.166Z,100293.97
2019-06-26T04:40:58.932Z,100298.61
2019-06-26T04:43:30.125Z,100298.91
2019-06-26T04:46:01.202Z,100300.22
2019-06-26T04:48:31.943Z,100308.16
2019-06-26T04:51:03.647Z,100310.44
2019-06-26T04:53:34.401Z,100313.23
2019-06-26T04:56:05.376Z,100311.06
2019-06-26T04:58:36.450Z,100312.06
2019-06-26T05:01:08.242Z,100317.00
2019-06-26T05:03:39.238Z,100309.06
2019-06-26T05:06:10.202Z,100315.13
2019-06-26T05:08:40.957Z,100316.64
2019-06-26T05:11:12.757Z,100323.19
2019-06-26T05:13:44.201Z,100319.52
2019-06-26T05:16:19.273Z,100325.78
2019-06-26T05:18:47.410Z,100327.24
2019-06-26T05:21:18.693Z,100331.34
2019-06-26T05:23:49.416Z,100334.79
2019-06-26T05:26:20.225Z,100338.55
2019-06-26T05:28:51.212Z,100336.35
2019-06-26T05:31:22.181Z,100333.48
2019-06-26T05:33:53.421Z,100346.32
2019-06-26T05:36:24.394Z,100326.72
2019-06-26T05:38:55.665Z,100340.09
2019-06-26T05:41:26.604Z,100346.06
2019-06-26T05:43:57.826Z,100350.84
2019-06-26T05:46:31.494Z,100355.70
2019-06-26T05:49:01.319Z,100356.10
2019-06-26T05:51:32.150Z,100357.48
2019-06-26T05:54:02.992Z,100358.02
2019-06-26T05:56:33.811Z,100358.82
2019-06-26T05:59:05.053Z,100352.67
2019-06-26T06:01:35.821Z,100357.20
2019-06-26T06:04:06.857Z,100361.68
2019-06-26T06:06:42.061Z,100359.03
2019-06-26T06:09:11.238Z,100361.11
2019-06-26T06:11:42.264Z,100368.02
2019-06-26T06:14:13.317Z,100367.38
2019-06-26T06:16:47.686Z,100364.26
2019-06-26T06:19:17.051Z,100369.66
2019-06-26T06:21:48.659Z,100371.84
2019-06-26T06:24:20.028Z,100374.83
2019-06-26T06:26:50.806Z,100376.16
2019-06-26T06:29:21.908Z,100375.91
2019-06-26T06:31:52.640Z,100374.97
2019-06-26T06:34:23.637Z,100374.25
2019-06-26T06:36:54.470Z,100382.14
2019-06-26T06:39:25.447Z,100372.70
2019-06-26T06:41:56.502Z,100379.92
2019-06-26T06:44:27.256Z,100381.59
2019-06-26T06:47:03.909Z,100384.70
2019-06-26T06:49:31.183Z,100382.91
2019-06-26T06:52:02.027Z,100386.63
2019-06-26T06:54:33.023Z,100389.72
2019-06-26T06:57:04.270Z,100393.14
2019-06-26T06:59:36.307Z,100394.17
2019-06-26T07:02:07.450Z,100403.67
2019-06-26T07:04:38.196Z,100404.37
2019-06-26T07:07:08.979Z,100408.45
2019-06-26T07:09:39.738Z,100411.20
2019-06-26T07:12:10.512Z,100408.88
2019-06-26T07:14:41.291Z,100416.77
2019-06-26T07:17:20.341Z,100420.18
2019-06-26T07:19:45.330Z,100414.44
2019-06-26T07:22:16.178Z,100415.25
2019-06-26T07:24:47.183Z,100412.99
2019-06-26T07:27:18.340Z,100419.31
2019-06-26T07:29:49.366Z,100415.39
2019-06-26T07:32:20.138Z,100421.34
2019-06-26T07:34:50.974Z,100426.35
2019-06-26T07:37:22.009Z,100427.50
2019-06-26T07:39:57.565Z,100430.54
2019-06-26T07:42:25.493Z,100433.53
2019-06-26T07:44:56.831Z,100424.14
2019-06-26T07:47:41.995Z,100433.94
2019-06-26T07:50:00.264Z,100432.41
2019-06-26T07:52:31.578Z,100438.27
2019-06-26T07:55:02.572Z,100444.02
2019-06-26T07:57:33.414Z,100429.59
2019-06-26T08:00:04.978Z,100429.59
2019-06-26T08:02:35.828Z,100447.54
2019-06-26T08:05:07.362Z,100446.48
2019-06-26T08:07:38.326Z,100449.91
2019-06-26T08:10:09.759Z,100454.05
2019-06-26T08:12:40.647Z,100448.52
2019-06-26T08:15:11.524Z,100443.73
2019-06-26T08:17:55.942Z,100444.75
2019-06-26T08:20:15.566Z,100446.62
2019-06-26T08:22:46.382Z,100443.19
2019-06-26T08:25:17.487Z,100443.53
2019-06-26T08:27:48.509Z,100438.05
2019-06-26T08:30:20.103Z,100452.10
2019-06-26T08:32:50.862Z,100449.94
2019-06-26T08:35:21.687Z,100449.23
2019-06-26T08:38:08.642Z,100448.52
2019-06-26T08:40:25.178Z,100451.38
2019-06-26T08:42:56.121Z,100454.56
2019-06-26T08:45:26.889Z,100452.80
2019-06-26T08:47:57.701Z,100455.19
2019-06-26T08:50:28.477Z,100451.55
2019-06-26T08:52:59.437Z,100451.83
2019-06-26T08:55:31.177Z,100447.61
2019-06-26T08:58:02.637Z,100445.05
2019-06-26T09:00:33.493Z,100444.90
2019-06-26T09:03:04.714Z,100451.05
2019-06-26T09:05:47.452Z,100444.63
2019-06-26T09:08:09.160Z,100446.41
2019-06-26T09:10:40.179Z,100444.19
2019-06-26T09:13:11.174Z,100447.69
2019-06-26T09:15:42.436Z,100444.53
2019-06-26T09:18:13.406Z,100443.55
2019-06-26T09:20:44.720Z,100444.63
2019-06-26T09:23:16.542Z,100440.33
2019-06-26T09:25:47.536Z,100440.59
2019-06-26T09:28:18.373Z,100436.50
2019-06-26T09:30:49.127Z,100436.53
2019-06-26T09:33:19.942Z,100429.22
2019-06-26T09:35:51.663Z,100433.59
2019-06-26T09:38:22.693Z,100431.39
2019-06-26T09:40:53.440Z,100431.05
2019-06-26T09:43:24.437Z,100437.09
2019-06-26T09:45:55.748Z,100431.34
2019-06-26T09:48:26.729Z,100432.28
2019-06-26T09:50:57.802Z,100431.64
2019-06-26T09:53:42.621Z,100434.55
2019-06-26T09:56:01.330Z,100433.39
2019-06-26T09:58:32.317Z,100437.77
2019-06-26T10:01:03.133Z,100435.36
2019-06-26T10:03:34.131Z,100435.33
2019-06-26T10:06:04.962Z,100427.34
2019-06-26T10:08:35.977Z,100433.13
2019-06-26T10:11:06.810Z,100428.42
2019-06-26T10:13:37.636Z,100431.66
2019-06-26T10:16:08.633Z,100433.13
2019-06-26T10:18:39.390Z,100427.59
2019-06-26T10:21:10.211Z,100426.19
2019-06-26T10:23:41.052Z,100424.19
2019-06-26T10:26:11.792Z,100428.84
2019-06-26T10:28:43.024Z,100428.39
2019-06-26T10:31:14.006Z,100431.75
2019-06-26T10:33:44.762Z,100431.61
2019-06-26T10:36:15.521Z,100429.35
2019-06-26T10:38:46.288Z,100432.98
2019-06-26T10:41:17.751Z,100431.31
2019-06-26T10:43:48.512Z,100435.06
2019-06-26T10:46:19.503Z,100425.83
2019-06-26T10:48:50.784Z,100431.80
2019-06-26T10:51:21.882Z,100431.28
2019-06-26T10:53:52.658Z,100434.84
2019-06-26T10:56:23.501Z,100433.16
2019-06-26T10:58:54.230Z,100429.94
2019-06-26T11:01:25.338Z,100420.67
2019-06-26T11:03:56.083Z,100434.52
2019-06-26T11:06:27.094Z,100423.31
2019-06-26T11:08:58.162Z,100425.97
2019-06-26T11:11:29.603Z,100425.45
2019-06-26T11:14:00.594Z,100423.75
2019-06-26T11:16:32.559Z,100415.88
2019-06-26T11:19:03.318Z,100409.74
2019-06-26T11:21:34.338Z,100415.84
2019-06-26T11:24:05.415Z,100409.98
2019-06-26T11:26:36.390Z,100412.41
2019-06-26T11:29:07.622Z,100404.38
2019-06-26T11:31:38.475Z,100406.64
2019-06-26T11:34:09.315Z,100396.07
2019-06-26T11:36:40.320Z,100395.64
2019-06-26T11:39:11.083Z,100397.35
2019-06-26T11:41:42.405Z,100395.28
2019-06-26T11:44:13.626Z,100396.63
2019-06-26T11:46:44.392Z,100393.41
2019-06-26T11:49:15.213Z,100395.27
2019-06-26T11:51:46.207Z,100391.53
2019-06-26T11:54:16.994Z,100389.34
2019-06-26T11:56:48.090Z,100391.58
2019-06-26T11:59:19.106Z,100388.88
2019-06-26T12:01:50.263Z,100388.88
2019-06-26T12:04:21.030Z,100377.77
2019-06-26T12:06:52.018Z,100375.81
2019-06-26T12:09:22.770Z,100377.95
2019-06-26T12:11:53.562Z,100384.48
2019-06-26T12:14:24.583Z,100375.58
2019-06-26T12:16:55.378Z,100372.84
2019-06-26T12:19:26.363Z,100373.97
2019-06-26T12:21:57.355Z,100372.58
2019-06-26T12:24:28.131Z,100383.19
2019-06-26T12:26:58.879Z,100377.76
2019-06-26T12:29:32.861Z,100375.05
2019-06-26T12:32:03.033Z,100368.53
2019-06-26T12:34:34.042Z,100373.96
2019-06-26T12:37:05.124Z,100377.48
2019-06-26T12:39:36.438Z,100373.70
2019-06-26T12:42:07.270Z,100376.69
2019-06-26T12:44:38.984Z,100372.36
2019-06-26T12:47:09.732Z,100368.25
2019-06-26T12:49:40.495Z,100372.89
2019-06-26T12:52:11.488Z,100378.02
2019-06-26T12:54:42.323Z,100369.63
2019-06-26T12:57:13.299Z,100369.34
2019-06-26T12:59:56.484Z,100364.47
2019-06-26T13:02:17.045Z,100363.09
2019-06-26T13:04:47.808Z,100361.45
2019-06-26T13:07:19.600Z,100356.34
2019-06-26T13:09:50.553Z,100357.62
2019-06-26T13:12:21.454Z,100359.81
2019-06-26T13:14:52.320Z,100358.59
2019-06-26T13:17:23.058Z,100351.92
2019-06-26T13:19:54.083Z,100349.47
2019-06-26T13:22:25.077Z,100348.69
2019-06-26T13:24:56.145Z,100343.47
2019-06-26T13:27:27.099Z,100342.37
2019-06-26T13:29:58.109Z,100341.79
2019-06-26T13:32:28.862Z,100336.58
2019-06-26T13:35:00.182Z,100342.30
2019-06-26T13:37:31.063Z,100343.36
2019-06-26T13:40:01.933Z,100337.09
2019-06-26T13:42:32.756Z,100341.09
2019-06-26T13:45:03.763Z,100338.16
2019-06-26T13:47:34.792Z,100338.84
2019-06-26T13:50:05.648Z,100338.05
2019-06-26T13:52:37.356Z,100332.33
2019-06-26T13:55:08.199Z,100326.96
2019-06-26T13:57:39.176Z,100327.08
2019-06-26T14:00:11.564Z,100324.70
2019-06-26T14:02:42.394Z,100325.98
2019-06-26T14:05:14.358Z,100324.66
2019-06-26T14:07:45.111Z,100322.04
2019-06-26T14:10:15.990Z,100321.09
2019-06-26T14:12:46.971Z,100317.12
2019-06-26T14:15:18.234Z,100315.53
2019-06-26T14:17:49.074Z,100312.13
2019-06-26T14:20:20.129Z,100310.28
2019-06-26T14:22:51.048Z,100308.44
2019-06-26T14:25:22.538Z,100303.13
2019-06-26T14:27:53.640Z,100302.97
2019-06-26T14:30:27.844Z,100299.05
2019-06-26T14:32:57.361Z,100297.75
2019-06-26T14:35:28.121Z,100298.00
2019-06-26T14:37:59.158Z,100300.71
2019-06-26T14:40:30.645Z,100295.34
2019-06-26T14:43:01.469Z,100297.09
2019-06-26T14:45:32.479Z,100291.96
2019-06-26T14:48:03.480Z,100297.37
2019-06-26T14:50:34.474Z,100295.85
2019-06-26T14:53:05.619Z,100292.48
2019-06-26T14:55:36.410Z,100293.66
2019-06-26T14:58:07.722Z,100292.32
2019-06-26T15:00:38.555Z,100293.92
2019-06-26T15:03:09.810Z,100295.13
2019-06-26T15:05:40.805Z,100288.58
2019-06-26T15:08:11.802Z,100289.13
2019-06-26T15:10:42.552Z,100288.17
2019-06-26T15:13:13.316Z,100283.64
2019-06-26T15:15:44.153Z,100282.53
2019-06-26T15:18:15.522Z,100277.25
2019-06-26T15:20:46.547Z,100279.78
2019-06-26T15:23:17.337Z,100274.23
2019-06-26T15:25:48.149Z,100278.29
2019-06-26T15:28:18.917Z,100275.25
2019-06-26T15:30:49.972Z,100273.88
2019-06-26T15:33:20.993Z,100267.09
2019-06-26T15:35:51.820Z,100261.87
2019-06-26T15:38:23.369Z,100265.16
2019-06-26T15:40:54.144Z,100271.79
2019-06-26T15:43:24.999Z,100267.16
2019-06-26T15:45:55.787Z,100260.28
2019-06-26T15:48:26.542Z,100254.39
2019-06-26T15:50:57.283Z,100252.05
2019-06-26T15:53:28.363Z,100264.27
2019-06-26T15:55:59.335Z,100264.05
2019-06-26T15:58:30.104Z,100257.08
2019-06-26T16:01:01.166Z,100253.80
2019-06-26T16:03:32.474Z,100250.28
2019-06-26T16:06:03.412Z,100255.34
2019-06-26T16:08:34.650Z,100254.45
2019-06-26T16:11:05.491Z,100254.02
2019-06-26T16:13:36.618Z,100245.14
2019-06-26T16:16:07.453Z,100245.59
2019-06-26T16:18:43.281Z,100243.45
2019-06-26T16:21:14.015Z,100244.39
2019-06-26T16:23:44.783Z,100239.23
2019-06-26T16:26:16.644Z,100240.39
2019-06-26T16:28:47.801Z,100240.61
2019-06-26T16:31:18.577Z,100239.56
2019-06-26T16:33:49.572Z,100236.53
2019-06-26T16:36:20.574Z,100240.08
2019-06-26T16:38:51.930Z,100238.77
2019-06-26T16:41:23.163Z,100239.55
2019-06-26T16:43:54.158Z,100232.94
2019-06-26T16:46:25.340Z,100233.31
2019-06-26T16:48:56.597Z,100227.00
2019-06-26T16:51:27.457Z,100226.41
2019-06-26T16:53:58.217Z,100223.36
2019-06-26T16:56:29.497Z,100229.91
2019-06-26T16:59:00.344Z,100226.41
2019-06-26T17:01:32.207Z,100228.73
2019-06-26T17:04:03.336Z,100225.69
2019-06-26T17:06:34.321Z,100220.13
2019-06-26T17:09:07.086Z,100217.75
2019-06-26T17:11:38.206Z,100198.42
2019-06-26T17:14:08.977Z,100198.42
2019-06-26T17:16:40.105Z,100214.52
2019-06-26T17:19:10.910Z,100215.98
2019-06-26T17:21:41.685Z,100213.06
2019-06-26T17:24:12.485Z,100213.53
2019-06-26T17:26:43.315Z,100209.59
2019-06-26T17:29:14.564Z,100207.39
2019-06-26T17:31:45.384Z,100205.73
2019-06-26T17:34:16.497Z,100197.63
2019-06-26T17:36:47.241Z,100201.45
2019-06-26T17:39:18.578Z,100198.84
2019-06-26T17:41:49.552Z,100200.45
2019-06-26T17:44:20.387Z,100197.49
2019-06-26T17:46:51.148Z,100197.00
2019-06-26T17:49:22.090Z,100193.56
2019-06-26T17:51:52.851Z,100195.28
2019-06-26T17:54:23.679Z,100191.59
2019-06-26T17:56:54.744Z,100181.27
2019-06-26T17:59:25.852Z,100189.61
2019-06-26T18:01:56.844Z,100192.96
2019-06-26T18:04:27.845Z,100201.52
2019-06-26T18:06:59.072Z,100200.57
2019-06-26T18:09:30.066Z,100201.67
2019-06-26T18:12:00.810Z,100200.27
2019-06-26T18:14:31.574Z,100193.44
2019-06-26T18:17:02.565Z,100204.19
2019-06-26T18:19:33.343Z,100193.97
2019-06-26T18:22:04.083Z,100199.02
2019-06-26T18:24:35.087Z,100201.53
2019-06-26T18:27:06.214Z,100201.81
2019-06-26T18:29:37.213Z,100202.87
2019-06-26T18:32:08.236Z,100206.19
2019-06-26T18:34:39.609Z,100203.64
2019-06-26T18:37:10.616Z,100203.31
2019-06-26T18:39:41.764Z,100205.19
2019-06-26T18:42:12.509Z,100205.50
2019-06-26T18:44:43.504Z,100216.57
2019-06-26T18:47:14.331Z,100213.28
2019-06-26T18:49:45.431Z,100214.09
2019-06-26T18:52:16.624Z,100211.42
2019-06-26T18:54:47.628Z,100216.88
2019-06-26T18:57:18.620Z,100211.07
2019-06-26T18:59:49.455Z,100217.41
2019-06-26T19:02:20.214Z,100217.16
2019-06-26T19:04:54.014Z,100219.58
2019-06-26T19:07:23.750Z,100210.83
2019-06-26T19:09:54.520Z,100215.82
2019-06-26T19:12:25.498Z,100218.94
2019-06-26T19:14:56.262Z,100228.51
2019-06-26T19:17:27.046Z,100221.86
2019-06-26T19:19:57.909Z,100221.55
2019-06-26T19:22:28.912Z,100228.55
2019-06-26T19:25:00.189Z,100230.73
2019-06-26T19:27:31.259Z,100232.08
2019-06-26T19:30:02.358Z,100227.77
2019-06-26T19:32:37.308Z,100229.81
2019-06-26T19:35:17.817Z,100234.03
2019-06-26T19:37:39.383Z,100242.31
2019-06-26T19:40:10.628Z,100237.58
2019-06-26T19:42:41.635Z,100237.89
2019-06-26T19:45:13.982Z,100233.77
2019-06-26T19:47:45.090Z,100238.59
2019-06-26T19:50:16.070Z,100240.64
2019-06-26T19:52:46.910Z,100245.88
2019-06-26T19:55:17.888Z,100246.81
2019-06-26T19:57:48.656Z,100247.92
2019-06-26T20:00:19.482Z,100249.20
2019-06-26T20:02:50.573Z,100247.03
2019-06-26T20:05:21.349Z,100249.91
2019-06-26T20:07:52.395Z,100257.67
2019-06-26T20:10:23.230Z,100276.84
2019-06-26T20:12:54.047Z,100281.13
2019-06-26T20:15:25.867Z,100277.44
2019-06-26T20:17:59.452Z,100279.34
2019-06-26T20:20:31.674Z,100276.48
2019-06-26T20:23:04.674Z,100273.41
2019-06-26T20:25:36.608Z,100272.69
2019-06-26T20:28:08.337Z,100277.19
2019-06-26T20:30:39.779Z,100279.03
2019-06-26T20:33:10.656Z,100281.88
2019-06-26T20:35:42.112Z,100280.41
2019-06-26T20:38:12.943Z,100282.57
2019-06-26T20:40:46.004Z,100277.34
2019-06-26T20:43:17.219Z,100288.78
2019-06-26T20:45:48.111Z,100287.84
2019-06-26T20:48:18.935Z,100294.56
2019-06-26T20:50:49.786Z,100293.92
2019-06-26T20:53:20.555Z,100289.02
2019-06-26T20:55:51.807Z,100286.95
2019-06-26T20:58:22.554Z,100288.36
2019-06-26T21:00:53.387Z,100290.14
2019-06-26T21:03:25.195Z,100284.82
2019-06-26T21:05:55.984Z,100293.42
2019-06-26T21:08:29.395Z,100292.84
2019-06-26T21:10:59.815Z,100294.14
2019-06-26T21:13:30.574Z,100288.89
2019-06-26T21:16:01.797Z,100290.70
2019-06-26T21:18:32.865Z,100289.15
2019-06-26T21:21:03.636Z,100297.82
2019-06-26T21:23:34.387Z,100294.63
2019-06-26T21:26:05.221Z,100296.03
2019-06-26T21:28:36.015Z,100292.25
2019-06-26T21:31:07.017Z,100303.33
2019-06-26T21:33:38.034Z,100303.61
2019-06-26T21:36:09.078Z,100312.31
2019-06-26T21:38:40.267Z,100311.20
2019-06-26T21:41:11.340Z,100310.95
2019-06-26T21:43:42.165Z,100309.19
2019-06-26T21:46:13.000Z,100306.34
2019-06-26T21:48:43.997Z,100307.20
2019-06-26T21:51:14.782Z,100313.72
2019-06-26T21:53:45.951Z,100308.64
2019-06-26T21:56:34.139Z,100316.30
2019-06-26T21:59:23.193Z,100314.94
2019-06-26T22:02:11.761Z,100313.24
2019-06-26T22:04:50.849Z,100312.02
2019-06-26T22:07:29.403Z,100314.74
2019-06-26T22:10:05.151Z,100320.93
2019-06-26T22:12:37.583Z,100327.05
2019-06-26T22:15:08.871Z,100324.20
2019-06-26T22:17:41.426Z,100328.52
2019-06-26T22:20:13.023Z,100328.59
2019-06-26T22:22:44.893Z,100332.47
2019-06-26T22:25:16.012Z,100327.44
2019-06-26T22:27:47.130Z,100332.63
2019-06-26T22:30:18.343Z,100332.80
2019-06-26T22:32:49.356Z,100328.37
2019-06-26T22:35:20.432Z,100323.20
2019-06-26T22:37:51.418Z,100328.39
2019-06-26T22:40:22.576Z,100327.89
2019-06-26T22:42:53.399Z,100333.49
2019-06-26T22:45:24.237Z,100335.86
2019-06-26T22:47:55.307Z,100337.19
2019-06-26T22:50:26.383Z,100328.48
2019-06-26T22:52:57.132Z,100332.03
2019-06-26T22:55:27.904Z,100334.88
2019-06-26T22:57:58.975Z,100330.66
2019-06-26T23:00:30.520Z,100332.84
2019-06-26T23:03:01.297Z,100340.47
2019-06-26T23:05:32.364Z,100338.11
2019-06-26T23:08:03.463Z,100342.28
2019-06-26T23:10:34.475Z,100344.16
2019-06-26T23:13:05.543Z,100344.16
2019-06-26T23:15:36.675Z,100347.09
2019-06-26T23:18:08.013Z,100347.53
2019-06-26T23:20:39.010Z,100348.75
2019-06-26T23:23:09.980Z,100349.53
2019-06-26T23:25:40.739Z,100345.48
2019-06-26T23:28:11.563Z,100346.48
2019-06-26T23:30:42.554Z,100347.38
2019-06-26T23:33:13.304Z,100343.00
2019-06-26T23:35:44.072Z,100338.66
2019-06-26T23:38:15.040Z,100336.23
2019-06-26T23:40:46.302Z,100338.66
2019-06-26T23:43:18.100Z,100341.31
2019-06-26T23:45:49.269Z,100338.00
2019-06-26T23:48:20.518Z,100345.50
2019-06-26T23:50:51.744Z,100350.66
2019-06-26T23:53:23.245Z,100351.04
2019-06-26T23:55:54.568Z,100353.31
2019-06-26T23:58:25.561Z,100348.40
